»·PEaware :: N800DW L52-L88

N800DW :: L52-L88

FLIGHT INFORMATION

Flight Status: Arrived
Operator: Privately registered:
United States
More flights under this callsign
Pilot: Scott L. (17677)
Aircraft: BEECH AIRCRAFT BARON
(BE58)
More flights by this aircraft type
Origin: L52 Oceano Co
United States
Destination: L88 New Cuyama
United States
More flights between these airports :: More routes between these airports
Route:
File this flight plan on PilotEdge
Remarks: CAT I
Altitude:
(Current/Filed)
3,000ft
Speed:
(Current/Filed)
190kts
Departed: 30-Dec-17 08:17 AM
Arrived: 30-Dec-17 08:56 AM
Distance/Time
Traveled:
47nm/0:39
Distance/Time
To Go:
Arrived

Flight Plot

Page will automatically refresh every two minutes.


Map Options




Map Legend


Flown Route
Filed Route
Departure Airport
Arrival Airport
Navaid (VOR, NDB)
Fix

Horizontal Profiles

Position Reports

Time Latitude Longitude Heading Altitude Ground
Speed
30-Dec-17 08:18 35.102465 -120.622783 34 14ft 0kts
30-Dec-17 08:19 35.102465 -120.622783 34 14ft 0kts
30-Dec-17 08:20 35.102465 -120.622783 34 14ft 0kts
30-Dec-17 08:21 35.103051 -120.624029 303 12ft 10kts
30-Dec-17 08:22 35.103539 -120.624860 289 11ft 9kts
30-Dec-17 08:23 35.093868 -120.604765 93 497ft 126kts
30-Dec-17 08:24 35.091221 -120.564013 97 2285ft 119kts
30-Dec-17 08:25 35.084663 -120.519556 100 3032ft 167kts
30-Dec-17 08:26 35.074837 -120.460482 101 3013ft 181kts
30-Dec-17 08:27 35.064546 -120.400115 102 3012ft 184kts
30-Dec-17 08:28 35.054724 -120.342824 102 3012ft 184kts
30-Dec-17 08:29 35.044354 -120.282554 103 3012ft 185kts
30-Dec-17 08:30 35.033399 -120.221556 100 3014ft 185kts
30-Dec-17 08:31 35.022778 -120.168574 98 4268ft 149kts
30-Dec-17 08:32 35.015348 -120.121285 101 5516ft 143kts
30-Dec-17 08:33 35.006060 -120.071776 96 6402ft 154kts
30-Dec-17 08:34 34.996315 -120.012194 103 5879ft 205kts
30-Dec-17 08:35 34.979242 -119.959936 177 3945ft 16kts
30-Dec-17 08:36 35.102465 -120.622783 34 14ft 0kts
30-Dec-17 08:37 35.103323 -120.623990 301 13ft 9kts
30-Dec-17 08:38 35.103555 -120.624976 264 11ft 7kts
30-Dec-17 08:39 35.095189 -120.611274 128 367ft 118kts
30-Dec-17 08:40 35.087765 -120.568001 90 1671ft 141kts
30-Dec-17 08:41 35.083952 -120.520572 98 2978ft 147kts
30-Dec-17 08:42 35.075667 -120.466063 102 3436ft 164kts
30-Dec-17 08:43 35.066537 -120.411660 103 4086ft 163kts
30-Dec-17 08:44 35.059750 -120.371912 103 4539ft 163kts
30-Dec-17 08:45 35.059750 -120.371912 103 4539ft 163kts
30-Dec-17 08:46 35.056818 -120.354806 103 4729ft 164kts
30-Dec-17 08:47 35.047452 -120.300311 104 5316ft 164kts
30-Dec-17 08:48 35.037616 -120.243476 103 5461ft 179kts
30-Dec-17 08:49 35.027261 -120.183562 103 5462ft 181kts
30-Dec-17 08:50 35.016785 -120.123361 100 5468ft 183kts
30-Dec-17 08:51 35.006176 -120.062065 100 5473ft 185kts
30-Dec-17 08:52 34.995415 -120.000395 101 5479ft 187kts
30-Dec-17 08:53 34.984496 -119.939065 97 4905ft 180kts
30-Dec-17 08:54 34.979364 -119.881241 95 4852ft 177kts
30-Dec-17 08:55 34.971771 -119.820348 76 4451ft 184kts
30-Dec-17 08:56 34.955060 -119.766528 119 3796ft 156kts
30-Dec-17 08:57 34.945024 -119.728182 95 3017ft 128kts
30-Dec-17 08:58 34.941592 -119.681924 54 3085ft 119kts
30-Dec-17 08:59 34.960833 -119.687894 309 2946ft 103kts
30-Dec-17 09:00 34.950918 -119.701856 155 2552ft 91kts
30-Dec-17 09:01 34.939875 -119.685377 122 2175ft 48kts
30-Dec-17 09:02 34.939323 -119.683917 122 2182ft 0kts
30-Dec-17 09:03 34.939323 -119.683917 122 2182ft 0kts
30-Dec-17 09:04 34.939323 -119.683917 122 2182ft 0kts
30-Dec-17 09:05 34.939323 -119.683917 122 2182ft 0kts
30-Dec-17 09:06 34.939323 -119.683917 122 2182ft 0kts
30-Dec-17 09:07 34.939323 -119.683917 122 2182ft 0kts
30-Dec-17 09:08 34.939323 -119.683917 122 2182ft 0kts
30-Dec-17 09:09 34.939323 -119.683917 122 2182ft 0kts
30-Dec-17 09:10 34.940037 -119.685839 298 2173ft 42kts
30-Dec-17 09:11 34.942780 -119.690800 174 2152ft 3kts
30-Dec-17 09:12 34.942776 -119.690800 175 2152ft 0kts
30-Dec-17 09:13 34.942776 -119.690800 175 2152ft 0kts
30-Dec-17 09:14 34.942776 -119.690800 175 2152ft 0kts
30-Dec-17 09:15 34.942776 -119.690800 175 2152ft 0kts
30-Dec-17 09:16 34.942776 -119.690800 175 2152ft 0kts
30-Dec-17 09:17 34.942776 -119.690800 175 2152ft 0kts

Navigation Log

Ident Type
Flight plan parsing failed, navigation log unavailable